Time;durP1;ratioP1;P1;durP2;ratioP2;P2;SDS_P1;SDS_P2;PMS_P1;PMS_P2;Temp;Humidity;BMP_temperature;BMP_pressure;BME280_temperature;BME280_humidity;BME280_pressure;Samples;Min_cycle;Max_cycle;Signal;HPM_P1;HPM_P2
2021/03/18 00:02:05;;;;;;;21.00;11.45;;;;;;;1.81;62.63;98730.66;5086023;28;20028;-78
2021/03/18 00:04:30;;;;;;;24.95;12.45;;;;;;;1.78;62.94;98729.25;5082295;28;20439;-78
2021/03/18 00:06:56;;;;;;;17.88;9.77;;;;;;;1.78;62.65;98725.69;5078856;28;20019;-78
2021/03/18 00:09:22;;;;;;;21.88;10.77;;;;;;;1.75;62.25;98727.00;5079175;28;20135;-78
2021/03/18 00:11:50;;;;;;;23.20;11.55;;;;;;;1.78;62.39;98731.09;5086663;28;20020;-79
2021/03/18 00:14:19;;;;;;;20.08;10.00;;;;;;;1.78;62.50;98733.81;5089530;28;20035;-78
2021/03/18 00:16:45;;;;;;;21.55;10.90;;;;;;;1.75;62.77;98731.56;5087813;28;20024;-78
2021/03/18 00:19:11;;;;;;;18.73;10.13;;;;;;;1.66;62.90;98731.09;5086431;28;20031;-78
2021/03/18 00:21:36;;;;;;;24.02;10.75;;;;;;;1.63;63.06;98732.34;5085293;28;20567;-77
2021/03/18 00:24:02;;;;;;;19.92;8.82;;;;;;;1.63;63.08;98736.94;5102258;27;20024;-77
2021/03/18 00:26:30;;;;;;;18.92;10.07;;;;;;;1.59;62.77;98728.50;5079076;28;20216;-77
2021/03/18 00:28:57;;;;;;;21.02;10.50;;;;;;;1.59;62.68;98724.94;5078354;28;20039;-77
2021/03/18 00:31:25;;;;;;;23.73;12.30;;;;;;;1.61;62.91;98720.97;5085047;28;20034;-76
2021/03/18 00:33:50;;;;;;;22.05;10.10;;;;;;;1.63;63.25;98726.13;5087573;28;20036;-78
2021/03/18 00:36:17;;;;;;;20.00;10.90;;;;;;;1.60;62.85;98719.31;5087190;28;20046;-78
2021/03/18 00:38:43;;;;;;;20.70;10.68;;;;;;;1.62;62.95;98719.91;5086377;28;20097;-78
2021/03/18 00:41:10;;;;;;;20.33;10.32;;;;;;;1.61;62.63;98718.28;5085665;28;20484;-77
2021/03/18 00:43:36;;;;;;;19.58;9.52;;;;;;;1.57;63.12;98725.19;5086223;28;20024;-78
2021/03/18 00:46:03;;;;;;;23.55;11.20;;;;;;;1.54;63.00;98720.25;5084120;28;20031;-77
2021/03/18 00:48:29;;;;;;;16.70;8.98;;;;;;;1.53;63.03;98717.75;5078349;28;20031;-77
2021/03/18 00:51:00;;;;;;;16.48;8.25;;;;;;;1.53;63.35;98715.06;5076743;28;20055;-77
2021/03/18 00:53:36;;;;;;;13.75;6.93;;;;;;;1.48;63.51;98721.16;5081230;28;20507;-78
2021/03/18 00:56:04;;;;;;;16.17;7.95;;;;;;;1.44;63.43;98709.97;5087122;28;20020;-77
2021/03/18 00:58:29;;;;;;;12.35;6.80;;;;;;;1.41;62.92;98715.88;5087263;28;20620;-78
2021/03/18 01:00:59;;;;;;;15.45;7.53;;;;;;;1.39;63.33;98709.88;5084752;28;20037;-78
2021/03/18 01:03:29;;;;;;;13.53;7.60;;;;;;;1.43;63.48;98716.44;5085462;28;20559;-79
2021/03/18 01:06:02;;;;;;;12.20;7.03;;;;;;;1.44;63.63;98709.16;5087034;28;20300;-78
2021/03/18 01:08:30;;;;;;;13.25;7.60;;;;;;;1.41;63.07;98704.22;5077299;28;20618;-78
2021/03/18 01:10:59;;;;;;;16.20;7.43;;;;;;;1.38;63.14;98710.06;5075849;28;20030;-77
2021/03/18 01:13:26;;;;;;;15.45;8.25;;;;;;;1.38;63.36;98701.97;5082224;28;20111;-77
2021/03/18 01:15:58;;;;;;;10.25;6.32;;;;;;;1.36;63.77;98706.78;5086852;28;20031;-78
2021/03/18 01:18:29;;;;;;;15.60;7.88;;;;;;;1.37;63.14;98705.72;5086055;28;20115;-78
2021/03/18 01:20:55;;;;;;;16.88;8.25;;;;;;;1.39;63.48;98711.72;5085056;28;20156;-78
2021/03/18 01:23:21;;;;;;;17.90;8.60;;;;;;;1.40;63.59;98711.50;5086056;28;20039;-78
2021/03/18 01:25:46;;;;;;;11.60;6.70;;;;;;;1.41;63.35;98712.31;5080876;28;20085;-78
2021/03/18 01:28:12;;;;;;;14.38;7.57;;;;;;;1.40;63.51;98707.97;5081542;28;20027;-78
2021/03/18 01:30:39;;;;;;;18.75;8.55;;;;;;;1.33;63.64;98708.88;5074956;28;20092;-78
2021/03/18 01:33:06;;;;;;;13.50;7.15;;;;;;;1.34;63.58;98709.72;5076968;28;20075;-77
2021/03/18 01:35:32;;;;;;;15.98;8.23;;;;;;;1.35;63.65;98714.06;5085477;28;20103;-78
2021/03/18 01:37:58;;;;;;;12.80;6.32;;;;;;;1.31;63.56;98704.78;5085587;28;20135;-79
2021/03/18 01:40:28;;;;;;;14.38;6.82;;;;;;;1.28;63.85;98707.94;5084415;28;20023;-78
2021/03/18 01:42:55;;;;;;;16.10;8.20;;;;;;;1.25;63.63;98701.09;5087173;28;20027;-78
2021/03/18 01:45:23;;;;;;;17.25;8.32;;;;;;;1.23;63.82;98708.59;5085758;28;20039;-78
2021/03/18 01:47:52;;;;;;;13.30;6.90;;;;;;;1.22;63.75;98709.69;5066609;28;20368;-78
2021/03/18 01:50:21;;;;;;;12.93;7.03;;;;;;;1.19;64.13;98704.72;5078290;28;20051;-78
2021/03/18 01:52:47;;;;;;;19.10;8.40;;;;;;;1.20;64.16;98711.78;5075934;28;20035;-78
2021/03/18 01:55:19;;;;;;;14.18;7.68;;;;;;;1.18;64.17;98705.78;5082381;28;20024;-78
2021/03/18 01:57:46;;;;;;;14.88;7.50;;;;;;;1.17;64.52;98704.94;5085254;28;20027;-78
2021/03/18 02:00:12;;;;;;;13.32;7.20;;;;;;;1.14;64.34;98701.91;5086307;28;20035;-78
2021/03/18 02:02:37;;;;;;;15.55;8.35;;;;;;;1.12;64.49;98704.81;5085059;28;20574;-79
2021/03/18 02:05:03;;;;;;;16.05;8.80;;;;;;;1.14;64.27;98705.41;5087059;28;20028;-78
2021/03/18 02:07:29;;;;;;;15.98;8.25;;;;;;;1.14;64.30;98708.09;5085001;28;20076;-78
2021/03/18 02:09:55;;;;;;;14.55;7.78;;;;;;;1.15;63.95;98711.66;5081877;28;20536;-78
2021/03/18 02:12:20;;;;;;;12.40;6.82;;;;;;;1.11;63.95;98705.06;5076596;28;20028;-78
2021/03/18 02:14:47;;;;;;;14.60;7.10;;;;;;;1.06;64.54;98713.81;5075865;28;20012;-79
2021/03/18 02:17:22;;;;;;;14.07;7.43;;;;;;;1.04;64.44;98697.84;5083517;28;20020;-78
2021/03/18 02:20:04;;;;;;;17.58;8.73;;;;;;;1.07;64.54;98709.25;5083710;28;20024;-78
2021/03/18 02:23:08;;;;;;;14.40;7.43;;;;;;;1.09;64.54;98715.25;5085146;28;20114;-78
2021/03/18 02:25:48;;;;;;;14.93;7.50;;;;;;;1.09;64.70;98709.84;5053844;28;20040;-78
2021/03/18 02:28:52;;;;;;;16.38;7.97;;;;;;;1.08;64.73;98713.59;5084502;28;20021;-78
2021/03/18 02:31:48;;;;;;;15.18;7.75;;;;;;;1.10;65.00;98708.81;5082017;28;20072;-78
2021/03/18 02:34:54;;;;;;;17.05;7.68;;;;;;;1.10;64.61;98709.59;5076160;28;20160;-78
2021/03/18 02:37:22;;;;;;;15.15;7.80;;;;;;;1.09;64.54;98716.06;5079404;28;20061;-79
2021/03/18 02:39:57;;;;;;;12.88;6.80;;;;;;;1.08;64.52;98716.31;5084378;28;20044;-78
2021/03/18 02:42:23;;;;;;;12.50;7.47;;;;;;;1.00;64.42;98712.88;5085195;28;20734;-78
2021/03/18 02:44:52;;;;;;;15.10;7.80;;;;;;;0.90;64.84;98712.56;5084676;28;20511;-77
2021/03/18 02:47:20;;;;;;;12.23;6.40;;;;;;;0.87;65.30;98708.47;5084652;28;20412;-78
2021/03/18 02:49:47;;;;;;;17.92;7.88;;;;;;;0.82;64.94;98720.97;5084089;28;20456;-78
2021/03/18 02:52:20;;;;;;;12.43;6.93;;;;;;;0.76;65.04;98711.91;5084011;28;20044;-78
2021/03/18 02:54:47;;;;;;;13.82;7.15;;;;;;;0.71;65.40;98719.84;5076421;28;20035;-78
2021/03/18 02:57:15;;;;;;;12.65;6.45;;;;;;;0.68;66.08;98718.44;5075005;28;20020;-78
2021/03/18 02:59:43;;;;;;;13.30;7.18;;;;;;;0.60;65.86;98718.75;5085051;28;20036;-77
2021/03/18 03:02:22;;;;;;;15.43;7.40;;;;;;;0.59;66.06;98723.31;5088085;28;20035;-78
2021/03/18 03:04:49;;;;;;;11.77;6.88;;;;;;;0.62;66.16;98723.91;5084168;28;20032;-77
2021/03/18 03:07:19;;;;;;;14.90;7.28;;;;;;;0.61;65.97;98720.38;5085565;28;20111;-78
2021/03/18 03:09:47;;;;;;;14.63;7.05;;;;;;;0.60;65.94;98732.22;5085691;28;20044;-78
2021/03/18 03:12:14;;;;;;;9.38;5.75;;;;;;;0.62;66.34;98726.59;5090359;28;20031;-78
2021/03/18 03:14:42;;;;;;;15.00;7.68;;;;;;;0.56;66.09;98726.47;5079390;28;20336;-78
2021/03/18 03:17:08;;;;;;;14.38;8.43;;;;;;;0.51;66.19;98725.47;5077964;28;20031;-78
2021/03/18 03:19:37;;;;;;;9.57;5.47;;;;;;;0.52;66.48;98724.44;5083804;28;20036;-78
2021/03/18 03:22:04;;;;;;;9.90;5.78;;;;;;;0.48;66.18;98729.47;5087739;28;20039;-78
2021/03/18 03:24:33;;;;;;;16.25;7.40;;;;;;;0.39;66.79;98725.41;5088236;28;20073;-77
2021/03/18 03:27:00;;;;;;;9.73;5.63;;;;;;;0.34;66.77;98723.38;5088282;28;20031;-77
2021/03/18 03:29:26;;;;;;;16.52;7.10;;;;;;;0.29;66.79;98717.81;5088136;28;20422;-78
2021/03/18 03:31:51;;;;;;;14.52;7.38;;;;;;;0.29;67.13;98726.72;5089484;28;20028;-77
2021/03/18 03:34:17;;;;;;;15.52;7.65;;;;;;;0.28;66.98;98733.16;5085489;28;20050;-77
2021/03/18 03:36:44;;;;;;;21.67;10.30;;;;;;;0.26;67.39;98731.75;5077056;28;20521;-77
2021/03/18 03:39:10;;;;;;;18.45;9.00;;;;;;;0.24;67.46;98729.25;5078198;28;20751;-77
2021/03/18 03:41:35;;;;;;;14.60;7.65;;;;;;;0.21;67.53;98727.00;5087846;28;20103;-77
2021/03/18 03:44:04;;;;;;;15.25;8.25;;;;;;;0.18;67.47;98729.34;5087631;28;20063;-77
2021/03/18 03:46:30;;;;;;;15.70;8.75;;;;;;;0.15;67.74;98733.31;5086447;28;20473;-77
2021/03/18 03:48:56;;;;;;;15.02;7.15;;;;;;;0.13;67.25;98732.69;5087945;28;20059;-77
2021/03/18 03:51:28;;;;;;;13.48;6.90;;;;;;;0.12;67.77;98737.25;5088353;28;20097;-78
2021/03/18 03:53:59;;;;;;;15.73;7.38;;;;;;;0.10;67.62;98731.25;5087560;28;20032;-77
2021/03/18 03:56:32;;;;;;;13.85;7.13;;;;;;;0.07;67.91;98734.41;5079957;28;20027;-77
2021/03/18 03:59:02;;;;;;;15.65;7.25;;;;;;;0.04;67.90;98742.91;5073174;28;20625;-77
2021/03/18 04:01:44;;;;;;;15.52;7.57;;;;;;;0.00;67.95;98736.34;5083356;28;20027;-78
2021/03/18 04:04:14;;;;;;;15.30;7.38;;;;;;;0.02;68.19;98736.91;5086759;28;20016;-77
2021/03/18 04:06:43;;;;;;;;;;;;;;;0.01;68.12;98734.47;5087783;28;20564;-78
2021/03/18 04:09:12;;;;;;;14.52;6.85;;;;;;;0.02;68.00;98742.31;5086999;28;20341;-77
2021/03/18 04:11:39;;;;;;;15.10;8.20;;;;;;;0.04;68.55;98739.41;5089124;28;20408;-77
2021/03/18 04:14:06;;;;;;;15.95;8.73;;;;;;;0.04;68.32;98740.22;5086515;28;20551;-77
2021/03/18 04:16:36;;;;;;;14.68;7.57;;;;;;;0.06;68.56;98748.13;5083708;28;20073;-77
2021/03/18 04:19:03;;;;;;;14.77;8.02;;;;;;;0.07;68.34;98739.78;5077386;28;20079;-77
2021/03/18 04:21:32;;;;;;;16.58;8.80;;;;;;;0.10;68.48;98735.84;5079996;28;20041;-78
2021/03/18 04:24:01;;;;;;;11.77;6.78;;;;;;;0.09;68.21;98742.28;5085868;28;20109;-78
2021/03/18 04:26:27;;;;;;;14.73;7.97;;;;;;;0.07;68.45;98739.78;5086013;28;20046;-78
2021/03/18 04:28:53;;;;;;;14.57;9.07;;;;;;;0.09;68.32;98739.59;5088052;28;20035;-78
2021/03/18 04:31:19;;;;;;;17.70;8.77;;;;;;;0.13;68.49;98743.50;5088166;28;20054;-78
2021/03/18 04:33:45;;;;;;;15.95;8.63;;;;;;;0.16;68.26;98744.91;5086621;28;20031;-78
2021/03/18 04:36:10;;;;;;;14.55;7.53;;;;;;;0.16;68.69;98747.59;5066820;28;20024;-78
2021/03/18 04:38:36;;;;;;;24.80;9.95;;;;;;;0.07;68.07;98749.75;5080244;28;20023;-77
2021/03/18 04:41:02;;;;;;;57.85;16.65;;;;;;;0.06;68.35;98748.91;5078093;28;20036;-77
2021/03/18 04:43:28;;;;;;;48.00;16.73;;;;;;;0.05;68.61;98743.75;5081907;28;20024;-78
2021/03/18 04:45:56;;;;;;;45.95;15.85;;;;;;;0.05;68.68;98749.16;5066161;28;20032;-77
2021/03/18 04:48:22;;;;;;;28.13;11.05;;;;;;;0.05;68.35;98744.56;5087629;28;20034;-78
2021/03/18 04:50:48;;;;;;;31.30;12.77;;;;;;;0.01;68.39;98742.56;5088533;28;20024;-78
2021/03/18 04:53:14;;;;;;;19.08;9.48;;;;;;;-0.03;68.77;98745.69;5111994;28;20024;-77
2021/03/18 04:55:40;;;;;;;14.43;7.53;;;;;;;-0.04;68.46;98745.91;5112596;28;20095;-78
2021/03/18 04:58:09;;;;;;;12.10;7.05;;;;;;;-0.07;68.75;98744.47;5112423;28;20111;-76
2021/03/18 05:00:35;;;;;;;13.55;7.72;;;;;;;-0.11;68.61;98754.03;5112609;28;20369;-77
2021/03/18 05:03:05;;;;;;;14.20;7.03;;;;;;;-0.12;68.48;98760.47;5112460;28;20825;-77
2021/03/18 05:05:32;;;;;;;13.23;7.15;;;;;;;-0.13;68.78;98750.72;5110346;28;20084;-78
2021/03/18 05:07:59;;;;;;;14.68;7.50;;;;;;;-0.15;68.65;98752.81;5112703;28;20028;-77
2021/03/18 05:10:26;;;;;;;15.40;7.85;;;;;;;-0.14;68.82;98753.66;5112384;28;20066;-77
2021/03/18 05:12:55;;;;;;;17.33;9.63;;;;;;;-0.10;68.86;98760.28;5112417;28;20027;-77
2021/03/18 05:15:21;;;;;;;29.52;14.80;;;;;;;-0.12;68.86;98757.78;5112314;28;20034;-76
2021/03/18 05:17:47;;;;;;;23.67;12.05;;;;;;;-0.16;68.81;98757.41;5112119;28;20019;-76
2021/03/18 05:20:14;;;;;;;19.30;9.60;;;;;;;-0.18;68.73;98764.88;5112183;28;20027;-77
2021/03/18 05:22:41;;;;;;;16.63;8.55;;;;;;;-0.20;68.59;98774.22;5112091;28;20023;-77
2021/03/18 05:25:08;;;;;;;17.73;7.93;;;;;;;-0.23;69.06;98774.69;5112164;28;20460;-77
2021/03/18 05:27:37;;;;;;;16.95;7.75;;;;;;;-0.21;68.84;98773.41;5093652;28;20015;-77
2021/03/18 05:30:05;;;;;;;19.95;10.73;;;;;;;-0.18;69.00;98770.28;5112012;28;20023;-77
2021/03/18 05:32:31;;;;;;;19.65;11.70;;;;;;;-0.12;69.16;98784.75;5109288;28;20027;-78
2021/03/18 05:34:56;;;;;;;20.38;10.95;;;;;;;-0.11;68.78;98775.59;5111683;28;20027;-78
2021/03/18 05:37:21;;;;;;;34.20;18.40;;;;;;;-0.08;68.84;98774.38;5112030;28;20023;-77
2021/03/18 05:39:47;;;;;;;32.42;18.65;;;;;;;-0.11;68.92;98781.00;5111866;28;20019;-77
2021/03/18 05:42:13;;;;;;;53.60;32.45;;;;;;;-0.09;68.65;98770.81;5112062;28;20011;-78
2021/03/18 05:44:38;;;;;;;20.63;10.77;;;;;;;-0.07;68.43;98773.31;5111876;28;20442;-78
2021/03/18 05:47:04;;;;;;;21.80;10.15;;;;;;;-0.10;68.83;98782.66;5111796;28;20495;-77
2021/03/18 05:49:31;;;;;;;92.22;31.20;;;;;;;-0.14;68.54;98781.44;5108993;28;20075;-77
2021/03/18 05:51:58;;;;;;;35.72;13.95;;;;;;;-0.17;68.76;98785.41;5111627;28;20476;-78
2021/03/18 05:54:24;;;;;;;30.33;13.13;;;;;;;-0.18;68.94;98785.59;5093291;28;20027;-77
2021/03/18 05:56:50;;;;;;;340.60;103.93;;;;;;;-0.19;68.86;98790.19;5109043;28;20155;-77
2021/03/18 05:59:17;;;;;;;27.83;11.70;;;;;;;-0.18;68.77;98783.75;5111943;28;20019;-77
2021/03/18 06:01:43;;;;;;;197.73;62.40;;;;;;;-0.19;69.24;98789.34;5111734;28;20020;-78
2021/03/18 06:04:08;;;;;;;23.75;10.73;;;;;;;-0.19;68.95;98794.75;5111531;28;20030;-78
2021/03/18 06:06:34;;;;;;;69.85;27.50;;;;;;;-0.24;68.81;98798.09;5093358;28;20035;-78
2021/03/18 06:09:01;;;;;;;93.07;34.38;;;;;;;-0.23;69.32;98793.56;5111393;28;20050;-78
2021/03/18 06:11:27;;;;;;;70.78;28.25;;;;;;;-0.26;69.04;98800.19;5111617;28;20012;-77
2021/03/18 06:13:52;;;;;;;29.00;13.48;;;;;;;-0.29;69.01;98802.50;5111587;28;20381;-78
2021/03/18 06:16:19;;;;;;;89.93;36.22;;;;;;;-0.31;69.20;98808.94;5111420;28;20034;-78
2021/03/18 06:18:45;;;;;;;40.17;18.45;;;;;;;-0.33;68.96;98802.94;5111246;28;20454;-76
2021/03/18 06:21:12;;;;;;;53.50;23.50;;;;;;;-0.34;69.18;98813.91;5111308;28;20084;-77
2021/03/18 06:23:37;;;;;;;53.63;24.13;;;;;;;-0.36;68.79;98803.38;5110921;28;20027;-76
2021/03/18 06:26:04;;;;;;;177.80;64.90;;;;;;;-0.30;69.52;98809.75;5110937;28;20027;-76
2021/03/18 06:28:31;;;;;;;110.65;41.45;;;;;;;-0.24;68.97;98811.56;5092759;28;20426;-76
2021/03/18 06:31:07;;;;;;;145.50;52.83;;;;;;;-0.18;68.88;98816.09;5111178;28;20020;-77
2021/03/18 06:33:38;;;;;;;127.85;46.17;;;;;;;-0.18;68.88;98809.88;5108468;28;20028;-77
2021/03/18 06:36:16;;;;;;;60.25;24.70;;;;;;;-0.18;68.71;98817.97;5111457;28;20035;-76
2021/03/18 06:38:42;;;;;;;44.15;21.08;;;;;;;-0.13;68.78;98825.41;5109979;28;20512;-77
2021/03/18 06:41:07;;;;;;;55.15;25.23;;;;;;;-0.19;68.72;98819.00;5111038;28;20103;-76
2021/03/18 06:43:41;;;;;;;68.07;30.30;;;;;;;-0.13;68.77;98825.41;5111025;28;20020;-76
2021/03/18 06:46:20;;;;;;;31.25;15.50;;;;;;;-0.11;69.09;98826.84;5093590;28;20027;-76
2021/03/18 06:48:47;;;;;;;28.10;16.50;;;;;;;-0.05;68.64;98827.84;5114838;28;20421;-77
2021/03/18 06:51:21;;;;;;;18.58;10.73;;;;;;;-0.06;68.64;98824.31;5096751;28;20027;-76
2021/03/18 06:53:48;;;;;;;22.25;11.07;;;;;;;-0.11;68.45;98824.13;5115103;28;20034;-76
2021/03/18 06:56:32;;;;;;;18.92;10.38;;;;;;;-0.16;68.66;98824.81;5096610;28;20042;-76
2021/03/18 06:58:59;;;;;;;26.85;14.60;;;;;;;-0.19;68.57;98827.09;5113196;28;20488;-77
2021/03/18 07:01:31;;;;;;;20.85;10.13;;;;;;;-0.23;68.22;98836.69;5114621;28;20062;-76
2021/03/18 07:04:04;;;;;;;21.13;11.80;;;;;;;-0.24;68.13;98829.63;5112646;28;20027;-76
2021/03/18 07:06:32;;;;;;;19.48;10.93;;;;;;;-0.23;68.28;98829.41;5114485;28;20024;-76
2021/03/18 07:09:06;;;;;;;26.08;13.95;;;;;;;-0.20;68.37;98831.66;5109589;28;20043;-77
2021/03/18 07:11:37;;;;;;;29.73;14.95;;;;;;;-0.17;68.21;98820.44;5111156;28;20027;-76
2021/03/18 07:14:04;;;;;;;18.40;10.98;;;;;;;-0.12;68.49;98827.88;5114368;28;20030;-76
2021/03/18 07:16:39;;;;;;;18.10;10.38;;;;;;;-0.05;68.31;98822.47;5114353;28;20387;-76
2021/03/18 07:19:05;;;;;;;16.00;10.27;;;;;;;0.01;68.39;98820.75;5096058;28;20047;-76
2021/03/18 07:21:36;;;;;;;22.45;12.68;;;;;;;0.05;68.31;98825.47;5111354;28;20074;-76
2021/03/18 07:24:02;;;;;;;18.55;10.85;;;;;;;0.12;68.07;98818.16;5114092;28;20047;-77
2021/03/18 07:26:28;;;;;;;25.45;14.40;;;;;;;0.18;68.10;98816.50;5113997;28;20675;-76
2021/03/18 07:29:11;;;;;;;15.73;8.82;;;;;;;0.23;68.02;98808.53;5113793;28;20028;-76
2021/03/18 07:31:37;;;;;;;33.15;14.73;;;;;;;0.30;68.02;98803.09;5112150;28;20028;-75
2021/03/18 07:34:04;;;;;;;29.17;13.00;;;;;;;0.41;67.91;98804.25;5113915;28;20036;-76
2021/03/18 07:36:30;;;;;;;32.03;11.63;;;;;;;0.50;67.51;98807.47;5113743;28;20062;-76
2021/03/18 07:38:55;;;;;;;19.50;9.05;;;;;;;0.58;67.47;98805.34;5114109;28;20051;-75
2021/03/18 07:41:21;;;;;;;28.15;13.55;;;;;;;0.68;67.46;98802.13;5113422;28;20098;-75
2021/03/18 07:43:47;;;;;;;18.63;11.23;;;;;;;0.79;67.42;98799.75;5113791;28;20518;-74
2021/03/18 07:46:15;;;;;;;28.08;14.55;;;;;;;0.87;67.21;98802.13;5113597;28;20016;-77
2021/03/18 07:48:43;;;;;;;37.33;15.38;;;;;;;0.97;67.07;98799.75;5113723;28;20027;-75
2021/03/18 07:51:09;;;;;;;30.05;13.95;;;;;;;1.03;66.89;98801.53;5113583;28;20023;-76
2021/03/18 07:53:35;;;;;;;24.15;11.10;;;;;;;1.06;65.84;98802.16;5113530;28;20024;-76
2021/03/18 07:56:01;;;;;;;28.05;12.95;;;;;;;1.04;65.96;98800.50;5113460;28;20059;-75
2021/03/18 07:58:41;;;;;;;24.73;11.80;;;;;;;1.05;65.86;98793.19;5113645;28;20015;-75
2021/03/18 08:01:07;;;;;;;19.40;8.55;;;;;;;1.08;65.31;98798.16;5113317;28;20092;-75
2021/03/18 08:03:33;;;;;;;27.33;13.27;;;;;;;1.12;65.00;98795.84;5113474;28;20023;-75
2021/03/18 08:05:59;;;;;;;30.42;10.82;;;;;;;1.20;65.13;98795.53;5113302;28;20031;-75
2021/03/18 08:08:30;;;;;;;26.35;10.95;;;;;;;1.29;64.69;98787.94;5113542;28;20024;-76
2021/03/18 08:11:06;;;;;;;18.42;9.13;;;;;;;1.35;64.06;98789.75;5111533;28;20429;-76
2021/03/18 08:13:33;;;;;;;41.58;16.58;;;;;;;1.38;63.90;98788.44;5110702;28;20081;-75
2021/03/18 08:15:59;;;;;;;98.30;41.65;;;;;;;1.37;63.76;98781.41;5113573;28;20379;-75
2021/03/18 08:18:24;;;;;;;44.65;23.77;;;;;;;1.46;63.90;98791.66;5095117;28;20106;-76
2021/03/18 08:20:49;;;;;;;28.02;16.15;;;;;;;1.55;63.85;98785.94;5113625;28;20028;-78
2021/03/18 08:23:24;;;;;;;19.75;9.25;;;;;;;1.67;63.48;98788.69;5114574;28;20464;-75
2021/03/18 08:25:53;;;;;;;79.88;35.40;;;;;;;1.73;63.81;98779.66;5114605;28;20024;-76
2021/03/18 08:28:42;;;;;;;45.95;35.55;;;;;;;1.82;63.57;98785.56;5114622;28;20032;-77
2021/03/18 08:31:11;;;;;;;19.38;10.73;;;;;;;1.90;62.88;98788.75;5114211;28;20471;-77
2021/03/18 08:33:43;;;;;;;23.77;13.07;;;;;;;2.01;63.09;98779.03;5114465;28;20024;-76
2021/03/18 08:36:34;;;;;;;88.47;30.08;;;;;;;2.10;62.61;98784.09;5114132;28;20170;-75
2021/03/18 08:39:11;;;;;;;189.05;41.35;;;;;;;2.26;62.24;98779.88;5114170;28;20043;-76
2021/03/18 08:41:41;;;;;;;22.25;8.05;;;;;;;2.45;61.65;98780.59;5114200;28;20034;-76
2021/03/18 08:44:17;;;;;;;9.48;5.55;;;;;;;2.63;61.01;98768.81;5114165;28;20035;-75
2021/03/18 08:46:54;;;;;;;59.78;21.92;;;;;;;2.79;61.96;98780.81;5114011;28;20031;-76
2021/03/18 08:49:34;;;;;;;116.65;37.92;;;;;;;2.87;61.44;98783.16;5113594;28;20079;-76
2021/03/18 08:52:11;;;;;;;8.10;5.00;;;;;;;3.00;60.08;98783.97;5110870;28;20106;-75
2021/03/18 08:54:36;;;;;;;9.55;4.25;;;;;;;2.97;60.15;98780.69;5113515;28;20454;-76
2021/03/18 08:57:29;;;;;;;39.70;12.00;;;;;;;2.94;59.11;98783.03;5113767;28;20103;-77
2021/03/18 08:59:59;;;;;;;30.92;9.13;;;;;;;2.96;58.62;98791.75;5113301;28;20572;-75
2021/03/18 09:02:34;;;;;;;36.80;9.07;;;;;;;2.96;57.69;98780.91;5112963;28;20051;-76
2021/03/18 09:05:03;;;;;;;207.15;42.03;;;;;;;2.93;58.52;98775.97;5111367;28;20110;-76
2021/03/18 09:07:33;;;;;;;108.43;24.65;;;;;;;2.91;57.88;98778.09;5113449;28;20050;-75
2021/03/18 09:10:25;;;;;;;55.20;25.10;;;;;;;2.91;59.11;98776.22;5112702;28;20035;-75
2021/03/18 09:13:02;;;;;;;62.92;17.35;;;;;;;2.95;58.45;98776.56;5102551;28;20065;-76
2021/03/18 09:15:27;;;;;;;8.82;4.55;;;;;;;2.94;58.34;98786.59;5113141;28;20038;-74
2021/03/18 09:18:12;;;;;;;29.05;9.98;;;;;;;2.92;57.88;98780.56;5113338;28;20040;-74
2021/03/18 09:20:41;;;;;;;12.30;5.32;;;;;;;2.90;57.71;98784.56;5112779;28;20114;-76
2021/03/18 09:23:08;;;;;;;6.15;3.85;;;;;;;2.86;56.96;98776.09;5112783;28;20037;-74
2021/03/18 09:25:33;;;;;;;52.17;14.52;;;;;;;2.89;57.14;98781.06;5112547;28;20019;-76
2021/03/18 09:27:59;;;;;;;24.92;9.68;;;;;;;2.97;57.83;98786.09;5094866;28;20028;-75
2021/03/18 09:30:28;;;;;;;23.98;8.18;;;;;;;3.06;57.58;98767.59;5112722;28;20106;-74
2021/03/18 09:32:56;;;;;;;23.73;10.18;;;;;;;3.22;56.93;98770.63;5111402;28;20023;-76
2021/03/18 09:35:22;;;;;;;15.35;8.05;;;;;;;3.34;56.41;98770.56;5111727;28;20028;-75
2021/03/18 09:37:48;;;;;;;10.75;5.43;;;;;;;3.41;56.72;98755.00;5111644;28;20115;-75
2021/03/18 09:40:16;;;;;;;14.38;9.23;;;;;;;3.55;55.67;98753.63;5111762;28;20045;-75
2021/03/18 09:42:42;;;;;;;14.40;6.93;;;;;;;3.68;56.45;98760.63;5112244;28;20027;-75
2021/03/18 09:45:08;;;;;;;12.48;5.47;;;;;;;3.82;55.37;98758.47;5111420;28;20031;-75
2021/03/18 09:47:36;;;;;;;9.10;4.97;;;;;;;3.81;55.48;98759.53;5111930;28;20031;-76
2021/03/18 09:50:04;;;;;;;30.00;18.35;;;;;;;3.88;55.56;98754.75;5112816;28;20097;-75
2021/03/18 09:52:29;;;;;;;30.65;11.32;;;;;;;4.03;55.51;98761.50;5094429;28;20026;-75
2021/03/18 09:54:58;;;;;;;9.10;5.55;;;;;;;4.13;54.39;98763.56;5112715;28;20024;-75
2021/03/18 09:57:29;;;;;;;8.45;4.32;;;;;;;4.19;53.82;98750.91;5113059;28;20380;-75
2021/03/18 09:59:55;;;;;;;16.73;6.25;;;;;;;4.22;53.82;98755.84;5112858;28;20476;-75
2021/03/18 10:02:29;;;;;;;18.75;6.85;;;;;;;4.26;53.86;98759.72;5112954;28;20027;-75
2021/03/18 10:04:55;;;;;;;11.05;4.80;;;;;;;4.32;53.31;98753.28;5112749;28;20023;-75
2021/03/18 10:07:26;;;;;;;15.07;5.85;;;;;;;4.31;51.80;98754.34;5112755;28;20073;-75
2021/03/18 10:09:51;;;;;;;7.70;3.65;;;;;;;4.35;51.71;98746.53;5094387;28;20046;-75
2021/03/18 10:12:20;;;;;;;9.25;6.00;;;;;;;4.35;51.14;98752.78;5112806;28;20020;-75
2021/03/18 10:15:01;;;;;;;14.05;7.55;;;;;;;4.37;51.41;98747.91;5112600;28;20421;-74
2021/03/18 10:17:49;;;;;;;48.92;15.93;;;;;;;4.50;53.03;98740.50;5112668;28;20137;-75
2021/03/18 10:20:15;;;;;;;21.75;9.00;;;;;;;4.62;52.16;98749.38;5110315;28;20057;-75
2021/03/18 10:22:46;;;;;;;24.15;8.25;;;;;;;4.71;52.88;98736.19;5116708;28;20031;-75
2021/03/18 10:25:17;;;;;;;16.10;6.63;;;;;;;4.83;52.36;98738.78;5117017;28;20071;-75
2021/03/18 10:27:45;;;;;;;8.43;4.40;;;;;;;4.92;52.62;98737.28;5116913;28;20418;-75
2021/03/18 10:30:14;;;;;;;10.05;4.88;;;;;;;4.89;51.45;98737.78;5117111;28;20387;-76
2021/03/18 10:32:42;;;;;;;8.23;4.20;;;;;;;4.67;49.61;98733.16;5116771;28;20375;-75
2021/03/18 10:35:10;;;;;;;13.98;5.80;;;;;;;4.37;49.57;98741.69;5098691;28;20122;-76
2021/03/18 10:37:39;;;;;;;16.88;6.43;;;;;;;4.16;49.49;98741.34;5116703;28;20525;-76
2021/03/18 10:40:25;;;;;;;9.38;4.47;;;;;;;4.02;49.65;98736.28;5116656;28;20047;-75
2021/03/18 10:42:52;;;;;;;20.55;7.65;;;;;;;3.98;49.35;98739.69;5116604;28;20042;-76
2021/03/18 10:45:27;;;;;;;20.33;6.15;;;;;;;4.02;49.91;98736.28;5116529;28;20069;-76
2021/03/18 10:47:56;;;;;;;28.38;8.68;;;;;;;4.12;50.68;98724.75;5116452;28;20031;-75
2021/03/18 10:50:26;;;;;;;43.25;14.60;;;;;;;4.31;51.44;98719.03;5116330;28;20030;-76
2021/03/18 10:52:56;;;;;;;17.67;6.18;;;;;;;4.43;48.83;98716.25;5116290;28;20118;-76
2021/03/18 10:55:28;;;;;;;13.32;5.65;;;;;;;4.46;47.93;98715.75;5116141;28;20032;-76
2021/03/18 10:58:00;;;;;;;21.92;8.75;;;;;;;4.38;48.77;98719.69;5116074;28;20023;-76
2021/03/18 11:00:28;;;;;;;49.25;20.80;;;;;;;4.29;48.83;98708.44;5116073;28;20024;-75
2021/03/18 11:03:03;;;;;;;125.10;61.35;;;;;;;4.25;47.86;98717.34;5115058;28;20019;-76
2021/03/18 11:05:35;;;;;;;171.70;55.83;;;;;;;4.24;49.57;98715.69;5115987;28;20183;-75
2021/03/18 11:08:01;;;;;;;251.32;74.43;;;;;;;4.14;48.52;98713.63;5115917;28;20031;-75
2021/03/18 11:10:44;;;;;;;71.50;24.85;;;;;;;4.01;49.14;98721.06;5115258;28;20043;-75
2021/03/18 11:13:13;;;;;;;24.77;8.88;;;;;;;3.80;49.96;98729.91;5115958;28;20031;-76
2021/03/18 11:15:47;;;;;;;20.38;7.97;;;;;;;3.51;51.31;98724.53;5115958;28;20375;-74
2021/03/18 11:18:14;;;;;;;16.05;7.13;;;;;;;3.30;52.13;98726.84;5116051;28;20027;-75
2021/03/18 11:20:41;;;;;;;25.58;12.63;;;;;;;3.09;52.93;98731.03;5115977;28;20027;-76
2021/03/18 11:23:07;;;;;;;8.25;3.47;;;;;;;2.97;52.84;98723.78;5115697;28;20024;-75
2021/03/18 11:25:34;;;;;;;8.57;4.25;;;;;;;2.88;53.13;98724.38;5115708;28;20161;-76
2021/03/18 11:27:59;;;;;;;60.25;20.90;;;;;;;2.81;52.44;98711.81;5115721;28;20032;-76
2021/03/18 11:30:37;;;;;;;28.48;10.48;;;;;;;3.04;53.40;98714.72;5097341;28;20027;-76
2021/03/18 11:33:12;;;;;;;103.50;43.20;;;;;;;3.35;54.10;98699.81;5115274;28;20023;-77
2021/03/18 11:35:38;;;;;;;37.88;22.13;;;;;;;3.62;53.42;98704.66;5116004;28;20353;-76
2021/03/18 11:38:03;;;;;;;19.38;6.07;;;;;;;3.80;52.32;98690.03;5115572;28;20031;-77
2021/03/18 11:40:29;;;;;;;18.60;5.97;;;;;;;3.85;51.84;98692.84;5115664;28;20027;-78